createdAt,value
2019-03-09T00:00:59.033Z,7.03
2019-03-09T00:03:27.483Z,6.93
2019-03-09T00:05:55.928Z,5.83
2019-03-09T00:08:24.358Z,6.17
2019-03-09T00:10:52.982Z,6.23
2019-03-09T00:13:21.429Z,6.80
2019-03-09T00:15:49.889Z,6.23
2019-03-09T00:18:18.378Z,6.10
2019-03-09T00:20:46.828Z,6.00
2019-03-09T00:23:33.350Z,6.37
2019-03-09T00:26:18.083Z,5.47
2019-03-09T00:28:53.822Z,6.77
2019-03-09T00:31:35.667Z,6.23
2019-03-09T00:34:04.297Z,6.10
2019-03-09T00:36:32.752Z,5.47
2019-03-09T00:39:01.188Z,5.63
2019-03-09T00:41:29.910Z,6.37
2019-03-09T00:43:59.274Z,6.73
2019-03-09T00:46:27.737Z,6.47
2019-03-09T00:48:56.247Z,5.90
2019-03-09T00:51:24.703Z,5.47
2019-03-09T00:53:53.150Z,6.10
2019-03-09T00:56:21.614Z,5.80
2019-03-09T00:58:50.113Z,5.97
2019-03-09T01:01:18.727Z,5.90
2019-03-09T01:03:47.184Z,6.53
2019-03-09T01:06:15.648Z,7.83
2019-03-09T01:08:44.069Z,5.30
2019-03-09T01:11:12.523Z,6.13
2019-03-09T01:13:41.025Z,5.80
2019-03-09T01:16:09.464Z,6.33
2019-03-09T01:18:37.902Z,6.27
2019-03-09T01:21:06.334Z,6.43
2019-03-09T01:23:34.770Z,6.50
2019-03-09T01:26:03.206Z,6.10
2019-03-09T01:28:31.647Z,6.23
2019-03-09T01:31:00.063Z,6.07
2019-03-09T01:33:29.431Z,6.37
2019-03-09T01:35:57.867Z,6.57
2019-03-09T01:38:26.306Z,6.17
2019-03-09T01:40:54.755Z,6.70
2019-03-09T01:43:23.191Z,6.40
2019-03-09T01:45:51.638Z,6.90
2019-03-09T01:48:24.875Z,6.07
2019-03-09T01:50:53.329Z,6.70
2019-03-09T01:53:21.791Z,6.63
2019-03-09T01:55:50.243Z,7.00
2019-03-09T01:58:18.692Z,7.27
2019-03-09T02:00:47.126Z,6.43
2019-03-09T02:03:15.575Z,8.23
2019-03-09T02:05:44.002Z,8.17
2019-03-09T02:08:12.527Z,6.80
2019-03-09T02:10:40.963Z,6.50
2019-03-09T02:13:09.397Z,6.70
2019-03-09T02:15:37.837Z,6.73
2019-03-09T02:18:06.308Z,6.53
2019-03-09T02:20:34.732Z,7.17
2019-03-09T02:23:03.187Z,7.50
2019-03-09T02:25:31.625Z,7.20
2019-03-09T02:28:00.064Z,7.20
2019-03-09T02:30:29.415Z,6.87
2019-03-09T02:32:57.927Z,6.97
2019-03-09T02:35:26.368Z,7.57
2019-03-09T02:37:55.255Z,7.43
2019-03-09T02:40:27.798Z,6.93
2019-03-09T02:42:56.294Z,7.30
2019-03-09T02:45:27.844Z,7.37
2019-03-09T02:47:56.351Z,6.87
2019-03-09T02:50:25.514Z,7.42
2019-03-09T02:52:54.021Z,7.23
2019-03-09T02:55:22.472Z,8.13
2019-03-09T02:57:50.972Z,7.50
2019-03-09T03:00:20.284Z,6.57
2019-03-09T03:02:56.252Z,7.43
2019-03-09T03:05:24.725Z,6.33
2019-03-09T03:07:53.164Z,6.50
2019-03-09T03:10:21.684Z,6.50
2019-03-09T03:12:50.123Z,6.73
2019-03-09T03:15:36.335Z,6.67
2019-03-09T03:18:05.105Z,6.63
2019-03-09T03:20:45.958Z,6.07
2019-03-09T03:23:17.234Z,5.97
2019-03-09T03:25:46.805Z,6.40
2019-03-09T03:28:15.639Z,7.17
2019-03-09T03:30:44.190Z,6.03
2019-03-09T03:33:12.622Z,6.63
2019-03-09T03:35:41.148Z,5.90
2019-03-09T03:38:09.589Z,6.27
2019-03-09T03:40:38.063Z,6.93
2019-03-09T03:43:06.564Z,5.90
2019-03-09T03:45:35.075Z,5.70
2019-03-09T03:48:03.543Z,5.80
2019-03-09T03:50:32.139Z,5.70
2019-03-09T03:53:00.589Z,5.50
2019-03-09T03:55:29.818Z,6.17
2019-03-09T03:57:58.261Z,4.70
2019-03-09T04:00:26.771Z,5.33
2019-03-09T04:02:55.207Z,5.53
2019-03-09T04:05:23.651Z,4.97
2019-03-09T04:07:52.575Z,5.23
2019-03-09T04:10:21.629Z,6.47
2019-03-09T04:12:50.300Z,5.03
2019-03-09T04:15:18.744Z,4.60
2019-03-09T04:17:47.186Z,4.63
2019-03-09T04:20:15.701Z,5.60
2019-03-09T04:22:44.136Z,4.33
2019-03-09T04:25:12.666Z,4.20
2019-03-09T04:27:41.162Z,5.03
2019-03-09T04:30:13.588Z,5.20
2019-03-09T04:32:42.015Z,5.00
2019-03-09T04:35:10.598Z,4.03
2019-03-09T04:37:39.039Z,3.47
2019-03-09T04:40:09.789Z,3.97
2019-03-09T04:42:38.211Z,2.90
2019-03-09T04:45:08.850Z,3.47
2019-03-09T04:47:37.277Z,3.40
2019-03-09T04:50:08.667Z,3.20
2019-03-09T04:52:37.096Z,2.90
2019-03-09T04:55:07.498Z,3.10
2019-03-09T04:57:35.989Z,3.00
2019-03-09T05:00:10.370Z,2.90
2019-03-09T05:02:38.798Z,2.77
2019-03-09T05:05:09.540Z,2.70
2019-03-09T05:07:39.302Z,3.03
2019-03-09T05:10:25.405Z,2.23
2019-03-09T05:13:05.929Z,3.43
2019-03-09T05:15:34.367Z,2.53
2019-03-09T05:18:02.796Z,2.57
2019-03-09T05:20:40.778Z,2.50
2019-03-09T05:23:09.219Z,2.67
2019-03-09T05:25:37.677Z,3.33
2019-03-09T05:28:06.102Z,2.47
2019-03-09T05:30:38.591Z,2.35
2019-03-09T05:33:07.040Z,2.30
2019-03-09T05:35:35.712Z,2.27
2019-03-09T05:38:04.366Z,2.00
2019-03-09T05:40:32.974Z,1.83
2019-03-09T05:43:01.406Z,2.27
2019-03-09T05:45:30.877Z,2.47
2019-03-09T05:48:00.038Z,1.90
2019-03-09T05:50:28.964Z,2.87
2019-03-09T05:53:06.706Z,2.47
2019-03-09T05:55:35.145Z,1.93
2019-03-09T05:58:03.570Z,2.20
2019-03-09T06:00:32.687Z,2.00
2019-03-09T06:03:01.119Z,2.37
2019-03-09T06:05:41.584Z,2.53
2019-03-09T06:08:10.016Z,2.20
2019-03-09T06:10:38.463Z,2.67
2019-03-09T06:13:06.903Z,2.43
2019-03-09T06:15:35.340Z,2.37
2019-03-09T06:18:06.927Z,2.90
2019-03-09T06:20:35.369Z,2.60
2019-03-09T06:23:03.809Z,2.13
2019-03-09T06:25:32.428Z,2.50
2019-03-09T06:28:00.852Z,2.90
2019-03-09T06:30:30.261Z,2.23
2019-03-09T06:33:17.674Z,4.97
2019-03-09T06:35:48.159Z,2.00
2019-03-09T06:38:37.399Z,2.20
2019-03-09T06:41:08.755Z,2.90
2019-03-09T06:43:37.177Z,2.57
2019-03-09T06:46:05.624Z,3.73
2019-03-09T06:48:34.065Z,2.53
2019-03-09T06:51:02.502Z,2.60
2019-03-09T06:53:30.930Z,3.63
2019-03-09T06:56:00.117Z,3.13
2019-03-09T06:58:28.559Z,2.80
2019-03-09T07:00:58.929Z,6.33
2019-03-09T07:03:28.638Z,3.62
2019-03-09T07:05:57.252Z,3.50
2019-03-09T07:08:25.691Z,3.63
2019-03-09T07:10:54.143Z,2.93
2019-03-09T07:13:22.575Z,2.67
2019-03-09T07:15:51.048Z,3.10
2019-03-09T07:18:19.518Z,3.10
2019-03-09T07:20:47.986Z,2.93
2019-03-09T07:23:16.463Z,2.70
2019-03-09T07:25:44.886Z,2.50
2019-03-09T07:28:14.475Z,2.57
2019-03-09T07:30:42.901Z,3.10
2019-03-09T07:33:11.344Z,2.23
2019-03-09T07:35:39.773Z,3.23
2019-03-09T07:38:08.230Z,3.07
2019-03-09T07:40:56.125Z,3.37
2019-03-09T07:43:24.571Z,3.67
2019-03-09T07:45:53.023Z,3.03
2019-03-09T07:48:21.465Z,2.50
2019-03-09T07:50:49.906Z,2.87
2019-03-09T07:53:18.347Z,3.60
2019-03-09T07:55:46.769Z,2.87
2019-03-09T07:58:15.227Z,3.33
2019-03-09T08:00:43.758Z,3.80
2019-03-09T08:03:13.467Z,3.40
2019-03-09T08:05:42.143Z,3.20
2019-03-09T08:08:10.598Z,2.97
2019-03-09T08:10:39.037Z,3.20
2019-03-09T08:13:07.482Z,3.37
2019-03-09T08:15:36.010Z,2.77
2019-03-09T08:18:04.483Z,2.97
2019-03-09T08:20:32.932Z,2.93
2019-03-09T08:23:01.423Z,2.87
2019-03-09T08:25:30.368Z,3.23
2019-03-09T08:27:58.831Z,2.63
2019-03-09T08:30:28.105Z,2.90
2019-03-09T08:32:56.588Z,2.90
2019-03-09T08:35:25.026Z,2.37
2019-03-09T08:37:53.481Z,2.30
2019-03-09T08:40:22.367Z,2.70
2019-03-09T08:42:50.853Z,2.80
2019-03-09T08:45:21.198Z,2.83
2019-03-09T08:47:52.553Z,1.77
2019-03-09T08:50:23.246Z,2.50
2019-03-09T08:52:51.951Z,2.10
2019-03-09T08:55:20.502Z,2.00
2019-03-09T08:57:48.995Z,2.07
2019-03-09T09:00:20.041Z,2.00
2019-03-09T09:02:48.548Z,2.27
2019-03-09T09:05:16.985Z,1.77
2019-03-09T09:07:45.480Z,2.13
2019-03-09T09:10:14.094Z,2.30
2019-03-09T09:12:42.521Z,3.27
2019-03-09T09:15:17.790Z,2.60
2019-03-09T09:17:46.298Z,2.00
2019-03-09T09:20:16.661Z,1.97
2019-03-09T09:22:45.129Z,1.93
2019-03-09T09:25:14.310Z,2.23
2019-03-09T09:27:42.751Z,1.97
2019-03-09T09:30:19.373Z,1.80
2019-03-09T09:32:47.850Z,2.00
2019-03-09T09:35:16.810Z,1.87
2019-03-09T09:37:45.275Z,1.83
2019-03-09T09:40:19.169Z,2.00
2019-03-09T09:42:47.651Z,2.20
2019-03-09T09:45:16.437Z,1.93
2019-03-09T09:47:45.154Z,2.00
2019-03-09T09:50:16.862Z,2.03
2019-03-09T09:52:45.484Z,2.10
2019-03-09T09:55:18.897Z,1.33
2019-03-09T09:57:47.327Z,1.40
2019-03-09T10:00:28.653Z,1.60
2019-03-09T10:02:57.103Z,1.60
2019-03-09T10:05:25.812Z,1.33
2019-03-09T10:07:54.233Z,1.47
2019-03-09T10:10:23.510Z,1.53
2019-03-09T10:12:52.014Z,1.33
2019-03-09T10:15:22.391Z,1.77
2019-03-09T10:17:50.857Z,1.40
2019-03-09T10:20:19.358Z,1.57
2019-03-09T10:22:47.790Z,1.53
2019-03-09T10:25:16.230Z,1.57
2019-03-09T10:27:44.712Z,1.40
2019-03-09T10:30:16.264Z,2.00
2019-03-09T10:32:44.728Z,1.70
2019-03-09T10:35:13.173Z,2.03
2019-03-09T10:37:41.608Z,1.50
2019-03-09T10:40:11.581Z,1.80
2019-03-09T10:42:40.006Z,1.90
2019-03-09T10:45:11.425Z,1.60
2019-03-09T10:47:39.862Z,1.67
2019-03-09T10:50:13.866Z,1.90
2019-03-09T10:52:42.306Z,1.73
2019-03-09T10:55:15.739Z,1.67
2019-03-09T10:57:44.437Z,1.73
2019-03-09T11:00:21.706Z,1.40
2019-03-09T11:02:50.207Z,1.57
2019-03-09T11:05:18.657Z,1.30
2019-03-09T11:07:47.247Z,1.27
2019-03-09T11:10:15.698Z,1.80
2019-03-09T11:12:44.294Z,1.87
2019-03-09T11:15:12.879Z,2.93
2019-03-09T11:17:41.311Z,2.27
2019-03-09T11:20:14.507Z,1.70
2019-03-09T11:22:42.937Z,1.30
2019-03-09T11:25:11.819Z,1.10
2019-03-09T11:27:40.253Z,1.30
2019-03-09T11:30:23.118Z,1.30
2019-03-09T11:32:51.553Z,1.40
2019-03-09T11:35:20.003Z,1.43
2019-03-09T11:37:48.430Z,1.33
2019-03-09T11:40:16.878Z,1.73
2019-03-09T11:42:45.304Z,1.40
2019-03-09T11:45:15.894Z,1.40
2019-03-09T11:47:44.317Z,1.70
2019-03-09T11:50:15.418Z,1.10
2019-03-09T11:52:43.845Z,1.30
2019-03-09T11:55:13.846Z,1.27
2019-03-09T11:57:42.284Z,1.10
2019-03-09T12:00:15.207Z,1.10
2019-03-09T12:02:43.646Z,1.40
2019-03-09T12:05:12.119Z,1.22
2019-03-09T12:07:40.564Z,1.50
2019-03-09T12:10:10.702Z,1.30
2019-03-09T12:12:39.147Z,1.40
2019-03-09T12:15:10.803Z,1.40
2019-03-09T12:17:39.235Z,1.37
2019-03-09T12:20:09.712Z,1.20
2019-03-09T12:22:38.141Z,1.40
2019-03-09T12:25:11.776Z,1.27
2019-03-09T12:27:40.213Z,1.57
2019-03-09T12:30:11.570Z,1.50
2019-03-09T12:32:40.069Z,1.40
2019-03-09T12:35:09.154Z,1.60
2019-03-09T12:37:37.597Z,1.70
2019-03-09T12:40:11.286Z,1.40
2019-03-09T12:42:39.712Z,1.50
2019-03-09T12:45:10.282Z,1.70
2019-03-09T12:47:38.894Z,1.70
2019-03-09T12:50:13.147Z,1.70
2019-03-09T12:52:41.594Z,1.80
2019-03-09T12:55:30.767Z,1.43
2019-03-09T12:57:59.209Z,1.53
2019-03-09T13:00:27.680Z,2.10
2019-03-09T13:02:56.121Z,1.83
2019-03-09T13:05:24.568Z,1.73
2019-03-09T13:07:53.016Z,1.70
2019-03-09T13:10:21.606Z,2.17
2019-03-09T13:12:50.036Z,2.50
2019-03-09T13:15:18.476Z,1.90
2019-03-09T13:17:46.926Z,1.90
2019-03-09T13:20:16.615Z,1.60
2019-03-09T13:22:45.124Z,1.60
2019-03-09T13:25:14.169Z,1.87
2019-03-09T13:27:42.609Z,1.92
2019-03-09T13:30:16.877Z,1.80
2019-03-09T13:32:45.323Z,1.90
2019-03-09T13:35:13.935Z,1.97
2019-03-09T13:37:42.381Z,1.40
2019-03-09T13:40:12.173Z,1.27
2019-03-09T13:42:40.670Z,1.90
2019-03-09T13:45:18.871Z,1.80
2019-03-09T13:47:47.325Z,1.70
2019-03-09T13:50:15.751Z,1.80
2019-03-09T13:52:44.203Z,1.87
2019-03-09T13:55:13.494Z,1.97
2019-03-09T13:57:41.945Z,1.87
2019-03-09T14:00:18.332Z,2.00
2019-03-09T14:02:46.860Z,2.03
2019-03-09T14:05:15.466Z,1.50
2019-03-09T14:07:43.909Z,1.23
2019-03-09T14:10:14.454Z,1.50
2019-03-09T14:12:42.899Z,1.90
2019-03-09T14:15:14.075Z,1.67
2019-03-09T14:17:42.699Z,1.53
2019-03-09T14:20:17.566Z,2.07
2019-03-09T14:22:46.028Z,1.50
2019-03-09T14:25:15.708Z,1.47
2019-03-09T14:27:44.242Z,1.57
2019-03-09T14:30:15.460Z,1.50
2019-03-09T14:32:43.908Z,1.80
2019-03-09T14:35:12.523Z,1.40
2019-03-09T14:37:40.968Z,1.43
2019-03-09T14:40:12.056Z,2.27
2019-03-09T14:42:40.508Z,1.80
2019-03-09T14:45:14.726Z,1.57
2019-03-09T14:47:43.191Z,1.43
2019-03-09T14:50:11.891Z,1.50
2019-03-09T14:52:41.159Z,2.10
2019-03-09T14:55:11.646Z,2.00
2019-03-09T14:57:40.103Z,1.77
2019-03-09T15:00:25.381Z,1.90
2019-03-09T15:02:53.819Z,2.07
2019-03-09T15:05:22.246Z,1.57
2019-03-09T15:07:50.699Z,1.93
2019-03-09T15:10:19.134Z,2.00
2019-03-09T15:12:47.590Z,1.77
2019-03-09T15:15:35.360Z,1.70
2019-03-09T15:18:03.979Z,1.63
2019-03-09T15:20:32.404Z,1.83
2019-03-09T15:23:01.453Z,1.47
2019-03-09T15:25:31.540Z,1.93
2019-03-09T15:28:00.219Z,1.37
2019-03-09T15:30:28.659Z,1.47
2019-03-09T15:32:57.110Z,1.70
2019-03-09T15:35:25.554Z,1.60
2019-03-09T15:37:54.009Z,1.50
2019-03-09T15:40:22.537Z,2.00
2019-03-09T15:42:51.050Z,1.80
2019-03-09T15:45:20.227Z,1.90
2019-03-09T15:47:48.741Z,1.80
2019-03-09T15:50:21.494Z,1.87
2019-03-09T15:52:49.992Z,1.97
2019-03-09T15:55:18.539Z,1.80
2019-03-09T15:57:47.037Z,1.80
2019-03-09T16:00:22.707Z,1.60
2019-03-09T16:02:51.171Z,2.00
2019-03-09T16:05:19.610Z,2.83
2019-03-09T16:07:48.227Z,2.20
2019-03-09T16:10:18.223Z,1.87
2019-03-09T16:12:46.826Z,1.80
2019-03-09T16:15:16.418Z,1.73
2019-03-09T16:17:44.999Z,2.73
2019-03-09T16:20:25.433Z,1.57
2019-03-09T16:22:53.886Z,2.10
2019-03-09T16:25:22.324Z,1.70
2019-03-09T16:27:50.745Z,1.90
2019-03-09T16:30:21.197Z,1.97
2019-03-09T16:32:49.716Z,1.87
2019-03-09T16:35:18.324Z,2.07
2019-03-09T16:37:47.998Z,1.90
2019-03-09T16:40:21.306Z,1.90
2019-03-09T16:42:49.763Z,2.00
2019-03-09T16:45:18.547Z,2.03
2019-03-09T16:47:46.990Z,6.10
2019-03-09T16:50:19.074Z,2.50
2019-03-09T16:52:47.587Z,1.93
2019-03-09T16:55:16.201Z,1.80
2019-03-09T16:57:44.899Z,2.20
2019-03-09T17:00:17.756Z,1.83
2019-03-09T17:02:46.321Z,1.90
2019-03-09T17:05:15.050Z,1.93
2019-03-09T17:07:43.470Z,2.10
2019-03-09T17:10:13.950Z,1.70
2019-03-09T17:12:42.380Z,2.03
2019-03-09T17:15:13.551Z,1.83
2019-03-09T17:17:42.153Z,2.03
2019-03-09T17:20:12.944Z,1.50
2019-03-09T17:22:41.388Z,1.70
2019-03-09T17:25:10.277Z,1.87
2019-03-09T17:27:38.716Z,1.50
2019-03-09T17:30:28.030Z,1.40
2019-03-09T17:32:56.468Z,1.60
2019-03-09T17:35:26.559Z,1.60
2019-03-09T17:37:55.022Z,1.30
2019-03-09T17:40:23.527Z,1.40
2019-03-09T17:42:51.957Z,3.07
2019-03-09T17:45:24.810Z,1.43
2019-03-09T17:47:53.259Z,1.53
2019-03-09T17:50:21.702Z,1.50
2019-03-09T17:52:50.140Z,1.47
2019-03-09T17:55:18.589Z,1.50
2019-03-09T17:57:47.031Z,1.40
2019-03-09T18:00:21.184Z,1.80
2019-03-09T18:02:49.624Z,1.90
2019-03-09T18:05:19.652Z,1.77
2019-03-09T18:07:48.324Z,2.07
2019-03-09T18:10:31.865Z,1.80
2019-03-09T18:13:00.342Z,1.80
2019-03-09T18:15:28.791Z,1.73
2019-03-09T18:17:57.233Z,1.70
2019-03-09T18:20:25.687Z,2.43
2019-03-09T18:22:54.192Z,2.40
2019-03-09T18:25:22.636Z,2.53
2019-03-09T18:27:51.072Z,2.60
2019-03-09T18:30:19.677Z,2.63
2019-03-09T18:32:48.127Z,2.80
2019-03-09T18:35:16.577Z,3.40
2019-03-09T18:37:45.015Z,3.87
2019-03-09T18:40:15.624Z,4.33
2019-03-09T18:42:44.086Z,3.83
2019-03-09T18:45:15.599Z,3.67
2019-03-09T18:47:44.051Z,3.00
2019-03-09T18:50:12.507Z,2.20
2019-03-09T18:52:40.944Z,3.07
2019-03-09T18:55:10.022Z,2.27
2019-03-09T18:57:38.450Z,2.10
2019-03-09T19:00:18.145Z,1.77
2019-03-09T19:02:46.575Z,1.80
2019-03-09T19:05:15.018Z,2.10
2019-03-09T19:07:43.456Z,1.77
2019-03-09T19:10:17.199Z,1.30
2019-03-09T19:12:45.705Z,1.40
2019-03-09T19:15:16.471Z,2.23
2019-03-09T19:17:45.062Z,1.40
2019-03-09T19:20:15.691Z,1.70
2019-03-09T19:22:44.205Z,1.50
2019-03-09T19:25:14.059Z,1.30
2019-03-09T19:27:42.501Z,1.40
2019-03-09T19:30:21.701Z,1.80
2019-03-09T19:32:59.581Z,1.40
2019-03-09T19:35:20.292Z,1.23
2019-03-09T19:37:48.740Z,1.43
2019-03-09T19:40:18.747Z,1.20
2019-03-09T19:42:47.184Z,1.43
2019-03-09T19:45:18.032Z,3.00
2019-03-09T19:47:46.458Z,1.60
2019-03-09T19:50:22.147Z,1.93
2019-03-09T19:52:50.651Z,2.00
2019-03-09T19:55:19.100Z,1.47
2019-03-09T19:57:47.525Z,1.50
2019-03-09T20:00:20.503Z,1.33
2019-03-09T20:02:49.280Z,1.17
2019-03-09T20:05:18.194Z,1.23
2019-03-09T20:07:46.691Z,0.97
2019-03-09T20:10:19.334Z,1.30
2019-03-09T20:12:47.779Z,1.03
2019-03-09T20:15:18.296Z,1.07
2019-03-09T20:17:46.803Z,1.00
2019-03-09T20:20:34.673Z,1.00
2019-03-09T20:23:03.256Z,0.97
2019-03-09T20:25:32.119Z,1.13
2019-03-09T20:28:00.645Z,1.20
2019-03-09T20:30:29.193Z,1.00
2019-03-09T20:32:57.677Z,1.07
2019-03-09T20:35:26.117Z,1.30
2019-03-09T20:37:56.389Z,1.67
2019-03-09T20:40:24.736Z,1.43
2019-03-09T20:42:53.174Z,1.20
2019-03-09T20:45:22.762Z,1.40
2019-03-09T20:47:51.211Z,1.80
2019-03-09T20:50:21.466Z,1.50
2019-03-09T20:52:49.888Z,1.30
2019-03-09T20:55:18.407Z,1.40
2019-03-09T20:58:06.487Z,1.33
2019-03-09T21:00:34.940Z,1.53
2019-03-09T21:03:03.370Z,1.00
2019-03-09T21:05:32.163Z,1.53
2019-03-09T21:08:00.622Z,1.40
2019-03-09T21:10:29.072Z,1.87
2019-03-09T21:13:05.209Z,1.53
2019-03-09T21:15:33.797Z,1.70
2019-03-09T21:18:02.297Z,1.13
2019-03-09T21:20:30.730Z,1.50
2019-03-09T21:22:59.163Z,1.42
2019-03-09T21:25:27.610Z,1.47
2019-03-09T21:27:56.043Z,1.30
2019-03-09T21:30:24.485Z,1.37
2019-03-09T21:32:52.927Z,1.53
2019-03-09T21:35:21.369Z,1.70
2019-03-09T21:37:49.809Z,1.80
2019-03-09T21:40:18.235Z,1.60
2019-03-09T21:42:46.747Z,1.40
2019-03-09T21:45:15.341Z,1.40
2019-03-09T21:47:43.775Z,2.20
2019-03-09T21:50:13.863Z,1.40
2019-03-09T21:52:42.378Z,1.33
2019-03-09T21:55:12.642Z,1.50
2019-03-09T21:57:41.073Z,1.43
2019-03-09T22:00:12.611Z,1.77
2019-03-09T22:02:41.045Z,1.57
2019-03-09T22:05:11.835Z,2.00
2019-03-09T22:07:40.272Z,1.40
2019-03-09T22:10:10.911Z,1.23
2019-03-09T22:12:39.350Z,1.40
2019-03-09T22:15:10.186Z,1.20
2019-03-09T22:17:38.630Z,1.97
2019-03-09T22:20:11.615Z,1.50
2019-03-09T22:22:40.043Z,2.20
2019-03-09T22:25:10.518Z,1.40
2019-03-09T22:27:39.231Z,1.80
2019-03-09T22:30:15.307Z,1.60
2019-03-09T22:32:43.821Z,2.07
2019-03-09T22:35:13.036Z,1.50
2019-03-09T22:37:41.482Z,1.63
2019-03-09T22:40:15.074Z,2.40
2019-03-09T22:42:43.519Z,2.03
2019-03-09T22:45:13.100Z,1.77
2019-03-09T22:47:41.528Z,1.60
2019-03-09T22:50:17.698Z,2.10
2019-03-09T22:52:46.606Z,2.17
2019-03-09T22:55:15.042Z,1.70
2019-03-09T22:57:43.482Z,1.60
2019-03-09T23:00:17.975Z,2.10
2019-03-09T23:02:46.426Z,2.03
2019-03-09T23:05:14.854Z,2.33
2019-03-09T23:07:43.356Z,2.17
2019-03-09T23:10:23.400Z,2.00
2019-03-09T23:12:51.852Z,2.07
2019-03-09T23:15:20.296Z,2.70
2019-03-09T23:17:49.089Z,2.50
2019-03-09T23:20:17.913Z,2.07
2019-03-09T23:22:46.356Z,2.00
2019-03-09T23:25:15.231Z,2.10
2019-03-09T23:27:43.740Z,1.93
2019-03-09T23:30:21.969Z,1.77
2019-03-09T23:32:50.555Z,1.67
2019-03-09T23:35:20.226Z,2.17
2019-03-09T23:37:48.829Z,1.77
2019-03-09T23:40:19.375Z,2.23
2019-03-09T23:42:47.832Z,1.90
2019-03-09T23:45:23.469Z,2.30
2019-03-09T23:47:54.466Z,2.20
2019-03-09T23:50:22.966Z,1.80
2019-03-09T23:52:51.578Z,2.37
2019-03-09T23:55:22.433Z,2.07
2019-03-09T23:57:50.342Z,2.13
